Time;durP1;ratioP1;P1;durP2;ratioP2;P2;SDS_P1;SDS_P2;PMS_P1;PMS_P2;Temp;Humidity;BMP_temperature;BMP_pressure;BME280_temperature;BME280_humidity;BME280_pressure;Samples;Min_cycle;Max_cycle;Signal;HPM_P1;HPM_P2
2021/10/17 00:00:16;;;;;;;12.45;5.40;;;9.60;75.70;;;;;;5073453;28;20122;-82
2021/10/17 00:02:45;;;;;;;10.73;4.90;;;9.60;75.60;;;;;;5073935;28;20101;-82
2021/10/17 00:05:13;;;;;;;11.82;4.93;;;9.50;75.70;;;;;;5073122;28;20056;-82
2021/10/17 00:07:40;;;;;;;13.07;6.40;;;9.50;75.60;;;;;;5073216;28;20045;-82
2021/10/17 00:10:10;;;;;;;10.43;5.28;;;9.50;75.60;;;;;;5072903;28;20098;-82
2021/10/17 00:12:38;;;;;;;17.08;5.88;;;9.50;75.60;;;;;;5072942;28;20045;-82
2021/10/17 00:15:07;;;;;;;9.02;4.82;;;9.40;75.70;;;;;;5073263;28;20052;-82
2021/10/17 00:17:34;;;;;;;10.88;5.22;;;9.40;75.70;;;;;;5073645;28;20387;-82
2021/10/17 00:20:01;;;;;;;12.43;5.18;;;9.50;75.70;;;;;;5072992;28;20451;-81
2021/10/17 00:22:27;;;;;;;7.47;4.85;;;9.40;75.70;;;;;;5073027;28;20040;-82
2021/10/17 00:24:54;;;;;;;9.93;4.80;;;9.40;75.70;;;;;;5072645;28;20052;-82
2021/10/17 00:27:21;;;;;;;13.70;4.90;;;9.40;75.70;;;;;;5072616;28;20049;-82
2021/10/17 00:29:48;;;;;;;10.52;4.97;;;9.40;75.70;;;;;;5073206;28;20049;-82
2021/10/17 00:32:15;;;;;;;10.75;5.22;;;9.30;75.70;;;;;;5073052;28;20098;-82
2021/10/17 00:34:44;;;;;;;12.63;5.13;;;9.30;75.70;;;;;;5072883;28;20047;-82
2021/10/17 00:37:11;;;;;;;8.38;4.70;;;9.30;75.70;;;;;;5072860;28;20044;-82
2021/10/17 00:39:37;;;;;;;10.43;4.60;;;9.30;75.70;;;;;;5072704;28;20106;-81
2021/10/17 00:42:05;;;;;;;9.52;4.18;;;9.20;75.70;;;;;;5072417;28;20056;-82
2021/10/17 00:44:32;;;;;;;8.82;4.65;;;9.20;75.70;;;;;;5073208;28;20052;-82
2021/10/17 00:46:59;;;;;;;9.63;4.60;;;9.20;75.60;;;;;;5072596;28;20048;-82
2021/10/17 00:49:26;;;;;;;12.93;4.82;;;9.20;75.60;;;;;;5072313;28;20044;-82
2021/10/17 00:51:53;;;;;;;10.45;4.70;;;9.10;75.60;;;;;;5071231;28;20049;-82
2021/10/17 00:54:20;;;;;;;13.00;4.82;;;9.10;75.60;;;;;;5072447;28;20040;-82
2021/10/17 00:56:47;;;;;;;10.32;4.53;;;9.10;75.60;;;;;;5072784;28;20052;-81
2021/10/17 00:59:15;;;;;;;11.10;4.82;;;9.10;75.60;;;;;;5072342;28;20049;-82
2021/10/17 01:01:42;;;;;;;9.20;4.80;;;9.00;75.60;;;;;;5072126;28;20110;-82
2021/10/17 01:04:09;;;;;;;11.38;4.70;;;9.00;75.60;;;;;;5072173;28;20044;-81
2021/10/17 01:06:37;;;;;;;10.10;4.55;;;9.00;75.60;;;;;;5072281;28;20056;-82
2021/10/17 01:09:05;;;;;;;9.30;4.55;;;9.00;75.60;;;;;;5072183;28;20048;-82
2021/10/17 01:11:44;;;;;;;10.32;4.90;;;8.90;75.60;;;;;;5072652;28;20056;-82
2021/10/17 01:14:18;;;;;;;12.18;4.90;;;8.90;75.60;;;;;;5071932;28;20044;-81
2021/10/17 01:16:46;;;;;;;11.98;4.57;;;8.90;75.60;;;;;;5071906;28;20040;-82
2021/10/17 01:19:14;;;;;;;11.90;4.68;;;8.90;75.70;;;;;;5071944;28;20528;-82
2021/10/17 01:21:42;;;;;;;10.27;4.43;;;8.90;75.70;;;;;;5071945;28;20040;-82
2021/10/17 01:24:11;;;;;;;9.13;4.80;;;8.80;75.70;;;;;;5071564;28;20048;-82
2021/10/17 01:26:38;;;;;;;13.25;4.90;;;8.80;75.70;;;;;;5072277;28;20056;-82
2021/10/17 01:29:06;;;;;;;12.73;5.00;;;8.80;75.70;;;;;;5071555;28;20048;-82
2021/10/17 01:31:47;;;;;;;9.05;4.65;;;8.80;75.70;;;;;;5071578;28;20049;-82
2021/10/17 01:34:14;;;;;;;10.43;4.60;;;8.70;75.70;;;;;;5071685;28;20512;-81
2021/10/17 01:36:42;;;;;;;12.25;4.88;;;8.70;75.70;;;;;;5071716;28;20090;-82
2021/10/17 01:39:11;;;;;;;10.70;4.78;;;8.70;75.70;;;;;;5071176;28;20098;-81
2021/10/17 01:41:38;;;;;;;13.40;4.80;;;8.70;75.70;;;;;;5072099;28;20060;-82
2021/10/17 01:44:07;;;;;;;9.60;4.55;;;8.60;75.70;;;;;;5071447;28;20049;-82
2021/10/17 01:46:35;;;;;;;11.52;4.60;;;8.60;75.70;;;;;;5071402;28;20048;-81
2021/10/17 01:49:07;;;;;;;13.27;5.10;;;8.60;75.70;;;;;;5071283;28;20045;-81
2021/10/17 01:51:34;;;;;;;13.02;4.70;;;8.60;75.70;;;;;;5071398;28;20102;-82
2021/10/17 01:54:04;;;;;;;11.95;5.05;;;8.50;75.80;;;;;;5071044;28;20049;-82
2021/10/17 01:56:34;;;;;;;11.88;4.95;;;8.50;75.70;;;;;;5070032;28;20459;-82
2021/10/17 01:59:01;;;;;;;11.23;4.72;;;8.50;75.70;;;;;;5071008;28;20543;-81
2021/10/17 02:01:28;;;;;;;9.80;4.68;;;8.50;75.70;;;;;;5070845;28;20052;-82
2021/10/17 02:03:58;;;;;;;11.20;5.10;;;8.40;75.70;;;;;;5071033;28;20057;-82
2021/10/17 02:06:25;;;;;;;10.27;4.95;;;8.40;75.70;;;;;;5070817;28;20512;-81
2021/10/17 02:08:52;;;;;;;10.98;5.05;;;8.40;75.70;;;;;;5070794;28;20044;-82
2021/10/17 02:11:19;;;;;;;13.48;5.07;;;8.40;75.70;;;;;;5071216;28;20053;-82
2021/10/17 02:13:46;;;;;;;11.25;4.78;;;8.40;75.70;;;;;;5070702;28;20040;-82
2021/10/17 02:16:13;;;;;;;9.85;4.85;;;8.40;75.70;;;;;;5070705;28;20573;-82
2021/10/17 02:18:39;;;;;;;12.00;4.82;;;8.30;75.70;;;;;;5070649;28;20048;-81
2021/10/17 02:21:07;;;;;;;12.98;5.22;;;8.30;75.80;;;;;;5070765;28;20052;-81
2021/10/17 02:23:34;;;;;;;11.60;5.50;;;8.30;75.80;;;;;;5070990;28;20036;-81
2021/10/17 02:26:01;;;;;;;11.40;5.82;;;8.30;75.90;;;;;;5070528;28;20053;-82
2021/10/17 02:28:30;;;;;;;11.15;5.40;;;8.30;75.90;;;;;;5070612;28;20093;-81
2021/10/17 02:30:56;;;;;;;13.55;4.90;;;8.30;76.00;;;;;;5070585;28;20056;-81
2021/10/17 02:33:24;;;;;;;10.63;5.25;;;8.20;76.00;;;;;;5070592;28;20048;-81
2021/10/17 02:35:50;;;;;;;10.98;5.05;;;8.20;76.10;;;;;;5070907;28;20074;-82
2021/10/17 02:38:17;;;;;;;10.80;5.70;;;8.20;76.10;;;;;;5070206;28;20044;-81
2021/10/17 02:40:45;;;;;;;11.57;5.43;;;8.20;76.10;;;;;;5070582;28;20097;-82
2021/10/17 02:43:12;;;;;;;13.13;6.40;;;8.20;76.20;;;;;;5070382;28;20052;-81
2021/10/17 02:45:39;;;;;;;11.57;5.47;;;8.20;76.20;;;;;;5070266;28;20402;-81
2021/10/17 02:48:06;;;;;;;10.63;5.68;;;8.20;76.30;;;;;;5070504;28;20048;-81
2021/10/17 02:50:33;;;;;;;12.38;6.07;;;8.20;76.30;;;;;;5071170;28;20068;-82
2021/10/17 02:53:00;;;;;;;19.85;6.95;;;8.20;76.30;;;;;;5070157;28;20081;-81
2021/10/17 02:55:27;;;;;;;14.27;5.65;;;8.20;76.40;;;;;;5070213;28;20505;-81
2021/10/17 02:57:54;;;;;;;10.68;5.55;;;8.20;76.40;;;;;;5070396;28;20053;-82
2021/10/17 03:00:21;;;;;;;11.60;6.05;;;8.20;76.40;;;;;;5070398;28;20047;-81
2021/10/17 03:02:48;;;;;;;13.38;5.95;;;8.20;76.40;;;;;;5070946;28;20052;-82
2021/10/17 03:05:15;;;;;;;15.02;6.03;;;8.10;76.40;;;;;;5070069;28;20057;-82
2021/10/17 03:07:43;;;;;;;12.93;5.88;;;8.20;76.50;;;;;;5069994;28;20040;-82
2021/10/17 03:10:10;;;;;;;10.60;6.07;;;8.20;76.50;;;;;;5070190;28;20044;-81
2021/10/17 03:12:37;;;;;;;11.95;5.95;;;8.20;76.50;;;;;;5070254;28;20036;-82
2021/10/17 03:15:06;;;;;;;12.60;6.53;;;8.10;76.50;;;;;;5072866;28;20045;-82
2021/10/17 03:17:34;;;;;;;11.57;6.20;;;8.10;76.50;;;;;;5074743;28;20131;-81
2021/10/17 03:20:01;;;;;;;13.10;6.00;;;8.10;76.50;;;;;;5073837;28;20041;-81
2021/10/17 03:22:29;;;;;;;9.13;5.30;;;8.20;76.50;;;;;;5074208;28;20117;-82
2021/10/17 03:24:55;;;;;;;13.05;6.07;;;8.10;76.50;;;;;;5073660;28;20497;-82
2021/10/17 03:27:22;;;;;;;11.50;6.43;;;8.10;76.60;;;;;;5074078;28;20447;-82
2021/10/17 03:29:49;;;;;;;11.20;5.53;;;8.10;76.60;;;;;;5074339;28;20574;-82
2021/10/17 03:32:16;;;;;;;14.07;5.68;;;8.10;76.60;;;;;;5073762;28;20044;-81
2021/10/17 03:34:43;;;;;;;12.32;6.38;;;8.10;76.60;;;;;;5073638;28;20098;-81
2021/10/17 03:37:10;;;;;;;18.05;6.43;;;8.10;76.60;;;;;;5073821;28;20068;-82
2021/10/17 03:39:37;;;;;;;13.57;5.97;;;8.10;76.60;;;;;;5073749;28;20554;-81
2021/10/17 03:42:04;;;;;;;11.48;5.85;;;8.10;76.70;;;;;;5073872;28;20121;-82
2021/10/17 03:44:31;;;;;;;11.75;6.15;;;8.10;76.60;;;;;;5074260;28;20106;-82
2021/10/17 03:46:57;;;;;;;12.63;6.68;;;8.10;76.70;;;;;;5073639;28;20053;-82
2021/10/17 03:49:24;;;;;;;10.88;6.05;;;8.10;76.70;;;;;;5073142;28;20554;-82
2021/10/17 03:51:51;;;;;;;10.00;6.40;;;8.10;76.70;;;;;;5073589;28;20101;-82
2021/10/17 03:54:18;;;;;;;14.05;6.22;;;8.10;76.70;;;;;;5073731;28;20224;-82
2021/10/17 03:56:45;;;;;;;12.38;6.70;;;8.00;76.70;;;;;;5069950;28;20056;-82
2021/10/17 03:59:15;;;;;;;11.55;6.55;;;8.10;76.70;;;;;;5073524;28;20097;-82
2021/10/17 04:01:42;;;;;;;10.23;5.88;;;8.00;76.80;;;;;;5073388;28;20052;-82
2021/10/17 04:04:09;;;;;;;12.02;6.30;;;8.10;76.80;;;;;;5072943;28;20127;-82
2021/10/17 04:06:37;;;;;;;15.27;7.40;;;8.00;76.80;;;;;;5073280;28;20316;-82
2021/10/17 04:09:04;;;;;;;12.93;6.75;;;8.00;76.80;;;;;;5073291;28;20124;-82
2021/10/17 04:11:31;;;;;;;14.38;5.85;;;8.00;76.80;;;;;;5073782;28;20056;-82
2021/10/17 04:13:58;;;;;;;11.90;6.43;;;8.00;76.80;;;;;;5073200;28;20048;-82
2021/10/17 04:16:25;;;;;;;11.23;6.55;;;8.00;76.80;;;;;;5073086;28;20041;-82
2021/10/17 04:18:52;;;;;;;15.30;6.10;;;8.00;76.80;;;;;;5072522;28;20094;-82
2021/10/17 04:21:18;;;;;;;12.38;6.35;;;8.00;76.80;;;;;;5073215;28;20102;-82
2021/10/17 04:23:45;;;;;;;11.07;6.60;;;8.00;76.80;;;;;;5073701;28;20436;-82
2021/10/17 04:26:12;;;;;;;12.15;7.20;;;8.00;76.80;;;;;;5072489;28;20467;-82
2021/10/17 04:28:39;;;;;;;15.35;7.82;;;8.00;76.80;;;;;;5072888;28;20044;-81
2021/10/17 04:31:06;;;;;;;13.07;7.22;;;8.00;76.90;;;;;;5072745;28;20053;-82
2021/10/17 04:33:33;;;;;;;11.95;7.38;;;8.00;76.90;;;;;;5072542;28;20059;-82
2021/10/17 04:36:00;;;;;;;13.15;7.18;;;7.90;77.00;;;;;;5072951;28;20049;-82
2021/10/17 04:38:27;;;;;;;13.27;7.35;;;8.00;77.00;;;;;;5073165;28;20098;-82
2021/10/17 04:40:54;;;;;;;13.10;7.65;;;7.90;77.00;;;;;;5072577;28;20059;-82
2021/10/17 04:43:21;;;;;;;19.75;9.27;;;7.90;77.00;;;;;;5072488;28;20500;-82
2021/10/17 04:45:47;;;;;;;13.20;8.90;;;7.90;77.00;;;;;;5072603;28;20052;-81
2021/10/17 04:48:14;;;;;;;12.68;8.63;;;7.90;77.10;;;;;;5072322;28;20052;-82
2021/10/17 04:50:42;;;;;;;14.55;8.88;;;7.90;77.10;;;;;;5073012;28;20041;-82
2021/10/17 04:53:09;;;;;;;17.48;9.25;;;7.90;77.10;;;;;;5072410;28;20102;-82
2021/10/17 04:55:36;;;;;;;15.60;9.30;;;7.90;77.20;;;;;;5072409;28;20413;-81
2021/10/17 04:58:04;;;;;;;12.70;9.25;;;7.90;77.20;;;;;;5072364;28;20106;-82
2021/10/17 05:00:32;;;;;;;15.10;10.00;;;7.90;77.20;;;;;;5072415;28;20048;-82
2021/10/17 05:02:59;;;;;;;16.05;9.82;;;7.90;77.30;;;;;;5072174;28;20155;-82
2021/10/17 05:05:26;;;;;;;18.70;10.55;;;7.90;77.30;;;;;;5072667;28;20140;-82
2021/10/17 05:07:53;;;;;;;15.18;10.10;;;7.90;77.30;;;;;;5072185;28;20060;-82
2021/10/17 05:10:20;;;;;;;16.00;9.63;;;7.90;77.30;;;;;;5072146;28;20094;-82
2021/10/17 05:12:47;;;;;;;17.45;10.15;;;7.90;77.30;;;;;;5072106;28;20394;-81
2021/10/17 05:15:13;;;;;;;12.57;9.18;;;7.90;77.30;;;;;;5072144;28;20106;-82
2021/10/17 05:17:40;;;;;;;18.35;10.60;;;7.90;77.30;;;;;;5072132;28;20118;-82
2021/10/17 05:20:08;;;;;;;12.80;9.35;;;7.90;77.30;;;;;;5071891;28;20095;-82
2021/10/17 05:22:35;;;;;;;11.85;9.60;;;7.90;77.30;;;;;;5071740;28;20053;-82
2021/10/17 05:25:01;;;;;;;16.38;10.43;;;7.90;77.30;;;;;;5071666;28;20044;-82
2021/10/17 05:27:28;;;;;;;15.07;9.63;;;7.90;77.30;;;;;;5071790;28;20467;-82
2021/10/17 05:29:55;;;;;;;12.98;9.45;;;7.90;77.30;;;;;;5071920;28;20075;-82
2021/10/17 05:32:23;;;;;;;13.60;9.77;;;7.90;77.30;;;;;;5071755;28;20048;-82
2021/10/17 05:34:50;;;;;;;19.05;10.40;;;7.90;77.30;;;;;;5071672;28;20044;-82
2021/10/17 05:37:17;;;;;;;15.85;9.57;;;7.90;77.30;;;;;;5070873;28;20040;-82
2021/10/17 05:39:44;;;;;;;25.90;10.85;;;7.90;77.30;;;;;;5071541;28;20044;-82
2021/10/17 05:42:10;;;;;;;18.23;10.20;;;7.90;77.30;;;;;;5070881;28;20056;-81
2021/10/17 05:44:37;;;;;;;15.45;10.18;;;7.80;77.30;;;;;;5069385;28;20048;-82
2021/10/17 05:47:04;;;;;;;17.00;10.80;;;7.80;77.30;;;;;;5070175;28;20513;-83
2021/10/17 05:49:31;;;;;;;17.23;10.38;;;7.80;77.30;;;;;;5073744;28;20085;-82
2021/10/17 05:51:58;;;;;;;17.52;10.75;;;7.80;77.30;;;;;;5084267;28;20459;-82
2021/10/17 05:54:25;;;;;;;17.23;11.32;;;7.80;77.40;;;;;;5069994;28;20040;-82
2021/10/17 05:56:51;;;;;;;20.10;11.05;;;7.80;77.40;;;;;;5074543;28;20106;-82
2021/10/17 05:59:18;;;;;;;16.35;11.00;;;7.80;77.40;;;;;;5074354;28;20044;-83
2021/10/17 06:01:45;;;;;;;20.17;10.35;;;7.80;77.40;;;;;;5072880;28;20045;-83
2021/10/17 06:04:12;;;;;;;19.73;10.60;;;7.70;77.50;;;;;;5072633;28;20056;-83
2021/10/17 06:06:43;;;;;;;16.55;11.35;;;7.70;77.50;;;;;;5073080;28;20512;-83
2021/10/17 06:09:10;;;;;;;16.42;10.55;;;7.70;77.50;;;;;;5070376;28;20090;-83
2021/10/17 06:11:37;;;;;;;14.77;10.77;;;7.80;77.60;;;;;;5076116;28;20048;-83
2021/10/17 06:14:06;;;;;;;16.05;10.57;;;7.70;77.60;;;;;;5072569;28;20554;-83
2021/10/17 06:16:33;;;;;;;15.55;10.63;;;7.70;77.60;;;;;;5072805;28;20048;-82
2021/10/17 06:19:00;;;;;;;14.85;11.13;;;7.70;77.60;;;;;;5071604;28;20424;-82
2021/10/17 06:21:27;;;;;;;14.35;10.32;;;7.70;77.60;;;;;;5069652;28;20564;-82
2021/10/17 06:23:53;;;;;;;13.95;10.07;;;7.70;77.60;;;;;;5074796;28;20045;-82
2021/10/17 06:26:20;;;;;;;15.85;10.68;;;7.70;77.60;;;;;;5073068;28;20056;-85
2021/10/17 06:28:47;;;;;;;18.30;10.50;;;7.70;77.60;;;;;;5072265;28;20044;-82
2021/10/17 06:31:14;;;;;;;16.88;10.85;;;7.70;77.60;;;;;;5072588;28;20130;-83
2021/10/17 06:33:41;;;;;;;14.38;10.15;;;7.70;77.60;;;;;;5071015;28;20043;-83
2021/10/17 06:36:08;;;;;;;14.90;10.55;;;7.70;77.60;;;;;;5070487;28;20129;-82
2021/10/17 06:38:35;;;;;;;19.45;11.02;;;7.70;77.60;;;;;;5075634;28;20049;-82
2021/10/17 06:41:02;;;;;;;16.10;9.60;;;7.60;77.60;;;;;;5071824;28;20048;-82
2021/10/17 06:43:30;;;;;;;14.43;9.82;;;7.70;77.60;;;;;;5071927;28;20102;-82
2021/10/17 06:45:56;;;;;;;13.52;10.23;;;7.60;77.60;;;;;;5072367;28;20097;-82
2021/10/17 06:48:23;;;;;;;14.63;10.75;;;7.60;77.70;;;;;;5068417;28;20083;-82
2021/10/17 06:50:50;;;;;;;16.52;10.85;;;7.60;77.70;;;;;;5074626;28;20049;-83
2021/10/17 06:53:17;;;;;;;16.20;11.05;;;7.60;77.70;;;;;;5073644;28;20044;-82
2021/10/17 06:55:44;;;;;;;16.52;11.43;;;7.60;77.70;;;;;;5071990;28;20086;-83
2021/10/17 06:58:14;;;;;;;15.90;11.23;;;7.60;77.70;;;;;;5071659;28;20125;-83
2021/10/17 07:00:41;;;;;;;14.98;11.05;;;7.60;77.80;;;;;;5070862;28;20044;-82
2021/10/17 07:03:08;;;;;;;15.20;11.50;;;7.60;77.80;;;;;;5070145;28;20746;-83
2021/10/17 07:05:35;;;;;;;16.25;11.32;;;7.60;77.80;;;;;;5076324;28;20071;-83
2021/10/17 07:08:02;;;;;;;16.63;11.60;;;7.60;77.90;;;;;;5072114;28;20052;-83
2021/10/17 07:10:29;;;;;;;16.83;10.45;;;7.60;77.90;;;;;;5071983;28;20036;-82
2021/10/17 07:12:56;;;;;;;20.73;12.38;;;7.60;77.90;;;;;;5071035;28;20048;-83
2021/10/17 07:15:23;;;;;;;23.55;13.32;;;7.60;78.00;;;;;;5068133;28;20102;-82
2021/10/17 07:17:50;;;;;;;20.73;13.75;;;7.60;78.00;;;;;;5074536;28;20044;-83
2021/10/17 07:20:30;;;;;;;20.85;13.55;;;7.60;78.10;;;;;;5074334;28;20060;-83
2021/10/17 07:22:57;;;;;;;19.52;12.18;;;7.60;78.10;;;;;;5071776;28;20505;-83
2021/10/17 07:25:24;;;;;;;20.58;11.93;;;7.60;78.20;;;;;;5071655;28;20463;-83
2021/10/17 07:27:52;;;;;;;19.67;13.10;;;7.70;78.20;;;;;;5071379;28;20048;-83
2021/10/17 07:30:20;;;;;;;16.60;12.15;;;7.70;78.30;;;;;;5067773;28;20086;-83
2021/10/17 07:32:48;;;;;;;16.40;11.80;;;7.60;78.30;;;;;;5075542;28;20463;-83
2021/10/17 07:35:15;;;;;;;18.00;12.45;;;7.70;78.30;;;;;;5070525;28;20079;-82
2021/10/17 07:37:43;;;;;;;19.60;11.55;;;7.70;78.40;;;;;;5071317;28;20048;-83
2021/10/17 07:40:10;;;;;;;17.08;11.90;;;7.70;78.50;;;;;;5070591;28;20055;-83
2021/10/17 07:42:37;;;;;;;18.42;12.05;;;7.70;78.60;;;;;;5071469;28;20049;-83
2021/10/17 07:45:06;;;;;;;17.55;11.65;;;7.70;78.70;;;;;;5070954;28;20102;-83
2021/10/17 07:47:34;;;;;;;18.05;10.95;;;7.80;78.70;;;;;;5074398;28;20052;-82
2021/10/17 07:50:02;;;;;;;22.40;12.40;;;7.80;78.80;;;;;;5071701;28;20044;-82
2021/10/17 07:52:29;;;;;;;17.80;11.05;;;7.80;78.80;;;;;;5071617;28;20504;-82
2021/10/17 07:54:56;;;;;;;16.00;11.60;;;7.90;78.90;;;;;;5072844;28;20501;-83
2021/10/17 07:57:23;;;;;;;18.80;11.93;;;7.90;79.00;;;;;;5067341;28;20107;-82
2021/10/17 07:59:51;;;;;;;17.17;11.60;;;7.90;79.10;;;;;;5073239;28;20060;-83
2021/10/17 08:02:18;;;;;;;17.15;11.40;;;7.90;79.20;;;;;;5076816;28;20102;-82
2021/10/17 08:04:48;;;;;;;16.70;11.88;;;7.90;79.20;;;;;;5076752;28;20093;-82
2021/10/17 08:07:17;;;;;;;16.95;12.13;;;8.00;79.30;;;;;;5077017;28;20049;-82
2021/10/17 08:09:44;;;;;;;16.90;11.00;;;8.00;79.40;;;;;;5073922;28;20500;-82
2021/10/17 08:12:11;;;;;;;18.63;11.63;;;8.10;79.40;;;;;;5072433;28;20091;-83
2021/10/17 08:14:37;;;;;;;14.55;10.65;;;8.10;79.50;;;;;;5078292;28;20048;-83
2021/10/17 08:17:04;;;;;;;16.83;11.00;;;8.20;79.40;;;;;;5074094;28;20109;-82
2021/10/17 08:19:31;;;;;;;15.40;10.23;;;8.20;79.50;;;;;;5074827;28;20043;-82
2021/10/17 08:21:58;;;;;;;14.70;10.90;;;8.30;79.50;;;;;;5075378;28;20089;-82
2021/10/17 08:24:25;;;;;;;17.55;11.32;;;8.40;79.50;;;;;;5070543;28;20512;-83
2021/10/17 08:26:52;;;;;;;13.73;10.23;;;8.40;79.50;;;;;;5075662;28;20118;-82
2021/10/17 08:29:19;;;;;;;14.60;10.32;;;8.40;79.50;;;;;;5076527;28;20048;-83
2021/10/17 08:31:46;;;;;;;16.00;9.60;;;8.40;79.40;;;;;;5074381;28;20463;-82
2021/10/17 08:34:13;;;;;;;15.65;9.75;;;8.50;79.40;;;;;;5074454;28;20091;-83
2021/10/17 08:36:40;;;;;;;13.93;10.23;;;8.50;79.40;;;;;;5071760;28;20455;-82
2021/10/17 08:39:26;;;;;;;14.27;10.10;;;8.60;79.50;;;;;;5054819;28;20141;-83
2021/10/17 08:41:53;;;;;;;15.82;9.90;;;8.70;79.50;;;;;;5075461;28;20452;-82
2021/10/17 08:44:20;;;;;;;12.80;9.40;;;8.80;79.60;;;;;;5074791;28;20045;-82
2021/10/17 08:46:47;;;;;;;13.10;9.77;;;8.80;79.60;;;;;;5073148;28;20098;-82
2021/10/17 08:49:21;;;;;;;13.23;9.07;;;8.90;79.60;;;;;;5073045;28;20044;-82
2021/10/17 08:51:48;;;;;;;13.15;9.40;;;9.00;79.60;;;;;;5072973;28;21207;-82
2021/10/17 08:54:15;;;;;;;13.70;9.23;;;9.00;79.60;;;;;;5068944;28;20056;-82
2021/10/17 08:56:42;;;;;;;14.00;8.85;;;9.20;79.50;;;;;;5077062;28;20468;-81
2021/10/17 08:59:09;;;;;;;15.15;9.43;;;9.20;79.50;;;;;;5072797;28;20459;-82
2021/10/17 09:01:38;;;;;;;17.25;8.70;;;9.40;79.50;;;;;;5072992;28;20044;-82
2021/10/17 09:04:10;;;;;;;13.25;8.40;;;9.40;79.40;;;;;;5072868;28;20135;-82
2021/10/17 09:06:38;;;;;;;12.20;8.18;;;9.50;79.30;;;;;;5070947;28;20098;-82
2021/10/17 09:09:08;;;;;;;10.00;7.53;;;9.50;79.10;;;;;;5071673;28;20055;-82
2021/10/17 09:11:41;;;;;;;15.13;8.63;;;9.60;79.00;;;;;;5074642;28;20044;-82
2021/10/17 09:14:16;;;;;;;11.23;7.65;;;9.80;78.90;;;;;;5072608;28;20052;-81
2021/10/17 09:16:46;;;;;;;13.77;7.78;;;9.90;78.90;;;;;;5072720;28;20429;-82
2021/10/17 09:19:24;;;;;;;11.63;8.40;;;10.00;78.80;;;;;;5072609;28;20048;-82
2021/10/17 09:22:03;;;;;;;15.98;8.38;;;10.10;78.70;;;;;;5072994;28;20040;-82
2021/10/17 09:24:35;;;;;;;16.02;9.13;;;10.20;78.60;;;;;;5055112;28;20179;-83
2021/10/17 09:27:15;;;;;;;14.07;8.20;;;10.30;78.50;;;;;;5072207;28;20102;-82
2021/10/17 09:29:47;;;;;;;13.75;7.38;;;10.40;78.40;;;;;;5075527;28;20101;-82
2021/10/17 09:32:17;;;;;;;13.73;7.50;;;10.50;78.30;;;;;;5071858;28;20056;-83
2021/10/17 09:34:59;;;;;;;13.45;7.50;;;10.60;78.10;;;;;;5073277;28;20045;-82
2021/10/17 09:37:40;;;;;;;10.43;7.35;;;10.80;78.00;;;;;;5068061;28;20044;-81
2021/10/17 09:40:19;;;;;;;13.52;7.65;;;10.90;77.80;;;;;;5068209;28;20492;-81
2021/10/17 09:43:02;;;;;;;10.55;6.75;;;11.00;77.60;;;;;;5069434;28;20044;-81
2021/10/17 09:45:28;;;;;;;13.20;7.05;;;11.10;77.40;;;;;;5055909;28;20095;-81
2021/10/17 09:47:56;;;;;;;14.57;7.45;;;11.30;77.20;;;;;;5073758;28;20052;-82
2021/10/17 09:50:24;;;;;;;12.13;6.53;;;11.40;77.00;;;;;;5074419;28;20048;-81
2021/10/17 09:52:55;;;;;;;11.70;6.50;;;11.50;76.70;;;;;;5072774;28;20489;-83
2021/10/17 09:55:22;;;;;;;9.73;5.80;;;11.70;76.40;;;;;;5076463;28;20044;-82
2021/10/17 09:57:50;;;;;;;11.60;6.72;;;11.80;76.20;;;;;;5084095;28;20094;-83
2021/10/17 10:00:17;;;;;;;13.23;6.40;;;12.00;75.90;;;;;;5053122;28;20049;-82
2021/10/17 10:02:49;;;;;;;12.63;6.90;;;12.10;75.60;;;;;;5084543;28;20454;-82
2021/10/17 10:05:22;;;;;;;14.63;6.78;;;12.20;75.20;;;;;;5073528;28;20053;-82
2021/10/17 10:07:51;;;;;;;10.32;6.43;;;12.40;74.80;;;;;;5072291;28;20044;-81
2021/10/17 10:10:19;;;;;;;12.02;6.70;;;12.50;74.40;;;;;;5073043;28;20044;-82
2021/10/17 10:12:47;;;;;;;12.38;6.53;;;12.60;74.00;;;;;;5071889;28;20105;-81
2021/10/17 10:15:15;;;;;;;11.95;5.90;;;12.70;73.70;;;;;;5069215;28;20041;-82
2021/10/17 10:17:42;;;;;;;12.18;5.68;;;12.80;73.40;;;;;;5076472;28;20098;-82
2021/10/17 10:20:10;;;;;;;8.75;5.20;;;12.90;73.20;;;;;;5072299;28;20078;-82
2021/10/17 10:22:37;;;;;;;10.75;5.57;;;12.90;72.90;;;;;;5072283;28;20459;-82
2021/10/17 10:25:05;;;;;;;9.48;5.38;;;13.00;72.70;;;;;;5072739;28;20048;-83
2021/10/17 10:27:36;;;;;;;11.80;5.40;;;13.10;72.50;;;;;;5071259;28;20048;-83
2021/10/17 10:30:27;;;;;;;13.02;6.20;;;13.20;72.40;;;;;;5070887;28;20060;-83
2021/10/17 10:33:06;;;;;;;10.60;5.80;;;13.30;72.10;;;;;;5070534;28;20493;-83
2021/10/17 10:35:34;;;;;;;9.02;5.15;;;13.30;71.90;;;;;;5074968;28;20237;-82
2021/10/17 10:38:01;;;;;;;9.52;5.65;;;13.40;71.70;;;;;;5072226;28;20086;-82
2021/10/17 10:40:28;;;;;;;12.23;5.32;;;13.40;71.50;;;;;;5072371;28;20086;-83
2021/10/17 10:42:55;;;;;;;11.02;5.28;;;13.50;71.40;;;;;;5072191;28;20089;-81
2021/10/17 10:45:35;;;;;;;12.40;6.13;;;13.50;71.20;;;;;;5068321;28;20048;-82
2021/10/17 10:48:13;;;;;;;9.32;5.22;;;13.50;71.00;;;;;;5072106;28;20459;-83
2021/10/17 10:51:07;;;;;;;12.13;4.47;;;13.60;70.80;;;;;;5075653;28;20067;-82
2021/10/17 10:53:51;;;;;;;7.72;4.28;;;13.60;70.70;;;;;;5073112;28;20470;-83
2021/10/17 10:56:37;;;;;;;9.50;4.72;;;13.60;70.60;;;;;;5073311;28;20087;-83
2021/10/17 10:59:04;;;;;;;7.88;5.40;;;13.70;70.60;;;;;;5071944;28;20052;-83
2021/10/17 11:02:18;;;;;;;11.15;5.10;;;13.70;70.50;;;;;;5072152;28;20048;-82
2021/10/17 11:04:45;;;;;;;8.80;4.85;;;13.70;70.50;;;;;;5071209;28;20484;-83
2021/10/17 11:07:22;;;;;;;8.43;4.97;;;13.70;70.40;;;;;;5071918;28;20505;-82
2021/10/17 11:09:51;;;;;;;10.80;5.07;;;13.80;70.30;;;;;;5071483;28;20101;-82
2021/10/17 11:12:46;;;;;;;13.40;5.70;;;13.80;70.30;;;;;;5052044;28;20044;-81
2021/10/17 11:15:16;;;;;;;8.43;5.07;;;13.80;70.10;;;;;;5084319;28;20041;-81
2021/10/17 11:17:52;;;;;;;8.80;4.72;;;13.90;69.90;;;;;;5075640;28;20562;-81
2021/10/17 11:20:22;;;;;;;9.95;5.40;;;13.90;69.70;;;;;;5073106;28;20048;-82
2021/10/17 11:22:50;;;;;;;12.38;5.00;;;13.90;69.50;;;;;;5071811;28;20075;-81
2021/10/17 11:25:22;;;;;;;9.85;4.80;;;13.90;69.30;;;;;;5071323;28;20044;-81
2021/10/17 11:27:50;;;;;;;12.60;4.63;;;13.90;69.10;;;;;;5071639;28;20097;-82
2021/10/17 11:30:32;;;;;;;9.90;4.88;;;13.90;69.00;;;;;;5051893;28;20090;-81
2021/10/17 11:33:01;;;;;;;9.20;4.32;;;14.00;68.90;;;;;;5070310;28;20052;-82
2021/10/17 11:35:34;;;;;;;9.30;4.70;;;14.00;68.80;;;;;;5075016;28;20048;-83
2021/10/17 11:38:03;;;;;;;10.18;4.50;;;14.00;68.50;;;;;;5072689;28;20456;-83
2021/10/17 11:40:33;;;;;;;8.77;4.22;;;14.00;68.40;;;;;;5076802;28;20428;-84
2021/10/17 11:43:05;;;;;;;9.10;4.22;;;14.00;68.30;;;;;;5075686;28;20051;-83
2021/10/17 11:45:41;;;;;;;11.10;4.53;;;14.00;68.30;;;;;;5073064;28;20403;-85
2021/10/17 11:48:12;;;;;;;8.02;4.30;;;14.00;68.30;;;;;;5073190;28;20056;-84
2021/10/17 11:50:46;;;;;;;10.43;4.47;;;14.00;68.30;;;;;;5079152;28;20040;-83
2021/10/17 11:53:15;;;;;;;13.10;4.13;;;14.00;68.20;;;;;;5075084;28;20048;-82
2021/10/17 11:55:49;;;;;;;10.00;4.30;;;13.90;68.10;;;;;;5073877;28;20402;-83
2021/10/17 11:58:18;;;;;;;;;;;13.90;68.00;;;;;;5075787;28;20053;-81
2021/10/17 12:00:46;;;;;;;8.27;4.50;;;13.90;68.00;;;;;;5074402;28;20308;-83
2021/10/17 12:03:16;;;;;;;8.75;4.10;;;13.90;68.00;;;;;;5071849;28;20107;-82
2021/10/17 12:05:45;;;;;;;12.48;4.10;;;13.90;67.90;;;;;;5079332;28;20048;-83
2021/10/17 12:08:23;;;;;;;9.80;4.70;;;13.90;67.90;;;;;;5075230;28;20056;-81
2021/10/17 12:10:55;;;;;;;11.05;4.72;;;13.90;67.90;;;;;;5074759;28;20488;-82
2021/10/17 12:13:22;;;;;;;7.93;4.40;;;13.90;67.80;;;;;;5075317;28;20075;-83
2021/10/17 12:16:07;;;;;;;8.50;4.53;;;13.90;67.70;;;;;;5074836;28;20090;-84
2021/10/17 12:18:34;;;;;;;9.32;4.00;;;14.00;67.70;;;;;;5058356;28;20099;-82
2021/10/17 12:21:02;;;;;;;9.98;4.38;;;14.00;67.70;;;;;;5075096;28;20106;-83
2021/10/17 12:23:29;;;;;;;8.98;4.80;;;14.10;67.70;;;;;;5077198;28;20102;-83
2021/10/17 12:25:56;;;;;;;9.02;4.47;;;14.00;67.70;;;;;;5075948;28;20497;-83
2021/10/17 12:28:23;;;;;;;7.53;4.22;;;14.10;67.60;;;;;;5074784;28;20501;-83
2021/10/17 12:30:55;;;;;;;9.07;3.83;;;14.10;67.50;;;;;;5074466;28;20040;-82
2021/10/17 12:33:31;;;;;;;8.30;3.95;;;14.20;67.40;;;;;;5070448;28;20044;-82
2021/10/17 12:36:00;;;;;;;6.40;3.88;;;14.20;67.30;;;;;;5075271;28;20048;-82
2021/10/17 12:38:34;;;;;;;9.02;4.15;;;14.20;67.30;;;;;;5076394;28;20048;-82
2021/10/17 12:41:09;;;;;;;6.60;3.70;;;14.30;67.20;;;;;;5074339;28;20049;-82
2021/10/17 12:43:38;;;;;;;9.85;4.10;;;14.30;67.10;;;;;;5074904;28;20060;-83
2021/10/17 12:46:19;;;;;;;8.82;3.67;;;14.40;67.00;;;;;;5073392;28;20478;-82
2021/10/17 12:48:48;;;;;;;8.65;3.67;;;14.40;66.80;;;;;;5073552;28;20577;-82
2021/10/17 12:51:40;;;;;;;7.47;4.05;;;14.40;66.70;;;;;;5070910;28;20094;-82